airplane image

note

mic

electronics

Fly Music Sound

What-else

 

 

 

 

LSZB

[Source: ADDS]
METAR
LSZB 250050Z AUTO VRB01KT CAVOK 10/09 Q1022 =
TAF

LSZG

[Source: ADDS]
METAR
LSZG 250050Z AUTO 05003KT CAVOK 13/09 Q1022 =
TAF

LSZH

[Source: ADDS]
METAR
LSZH 250050Z 36003KT 9999 FEW045 SCT080 16/11 Q1022 NOSIG =
TAF
LSZH 242325Z 2500/2606 VRB03KT 9999 SCT060 BKN100 TX23/2514Z TN11/2504Z TN10/2604Z BECMG 2507/2510 05010KT SCT050 BECMG 2518/2521 VRB03KT CAVOK =